Flight Track Log - Related Links

Times and Time Zones

All times are in EDT time to prevent confusion due to time zone crossing. See the PDT4314 flight status page for this flight to view local times or setup timezone preferences in your user account.

Time Position Orientation Groundspeed Altitude Reporting Facility
EDT Latitude Longitude Course Direction KTS MPH feet Rate Location/Type
Mon 05:58:00 PM 41.9971 -75.9105 180° South  Level Estimated
Mon 05:59:00 PM 41.9442 -75.8933 154° Southeast  Level Estimated
Mon 06:00:00 PM 41.8914 -75.8761 160° South  Level Estimated
Mon 06:01:00 PM 41.8385 -75.8590 159° South  Level Estimated
Mon 06:02:00 PM 41.7846 -75.8495 173° South  Level FlightAware Approximate
Mon 06:03:00 PM 41.7307 -75.8401 173° South  Level FlightAware Approximate
Mon 06:04:00 PM 41.6779 -75.8226 153° Southeast  Level Estimated
Mon 06:05:00 PM 41.6251 -75.8051 161° South  Level Estimated
Mon 06:06:00 PM 41.5724 -75.7871 166° South  Level FlightAware Approximate
Mon 06:07:00 PM 41.5198 -75.7692 166° South  Level FlightAware Approximate
Mon 06:08:00 PM 41.4671 -75.7513 166° South  Level FlightAware Approximate
Mon 06:09:00 PM 41.4143 -75.7339 162° South  Level Estimated
Mon 06:10:00 PM 41.3623 -75.7128 163° South  Level FlightAware Approximate
Mon 06:11:00 PM 41.3102 -75.6917 163° South  Level FlightAware Approximate
Mon 06:12:00 PM 41.2582 -75.6707 163° South  Level FlightAware Approximate
Mon 06:13:00 PM 41.2062 -75.6497 163° South  Level FlightAware Approximate
Mon 06:14:00 PM 41.1533 -75.6331 159° South  Level Estimated
Mon 06:15:00 PM 41.1003 -75.6166 163° South  Level Estimated
Mon 06:16:00 PM 41.0487 -75.5940 162° South  Level FlightAware Approximate
Mon 06:17:00 PM 40.9970 -75.5715 162° South  Level FlightAware Approximate
Mon 06:18:00 PM 40.9454 -75.5491 162° South  Level FlightAware Approximate
Mon 06:19:00 PM 40.8923 -75.5336 190° South  Level Estimated
Mon 06:20:00 PM 40.8380 -75.5289 176° South  Level FlightAware Approximate
Mon 06:20:38 PM 40.6667 -75.6000 189° South 249 287 7,500  Level Philadelphia TRACON
Mon 06:21:00 PM 40.7838 -75.5242 176° South  Level FlightAware Approximate
Mon 06:21:26 PM 40.6000 -75.5833 169° South 259 298 6,900  Level Philadelphia TRACON
Mon 06:22:00 PM 40.7295 -75.5196 176° South  Level FlightAware Approximate
Mon 06:22:26 PM 40.5333 -75.5833 180° South 259 298 6,300  Level Philadelphia TRACON
Mon 06:23:00 PM 40.6767 -75.5022 187° South  Level Estimated
Mon 06:23:27 PM 40.4667 -75.5833 180° South 256 295 5,500  Level Philadelphia TRACON
Mon 06:24:00 PM 40.6224 -75.5051 182° South  Level FlightAware Approximate
Mon 06:24:27 PM 40.3833 -75.5833 180° South 258 297 5,000  Level Philadelphia TRACON
Mon 06:25:00 PM 40.5699 -75.4864 190° South  Level Estimated
Mon 06:25:27 PM 40.3333 -75.5500 153° Southeast 247 284 5,000  Level Philadelphia TRACON
Mon 06:26:00 PM 40.5162 -75.4971 189° South  Level FlightAware Approximate
Mon 06:26:27 PM 40.3000 -75.4833 123° Southeast 238 274 5,000  Level Philadelphia TRACON
Mon 06:27:27 PM 40.2667 -75.4000 118° Southeast 235 270 5,000  Level Philadelphia TRACON
Mon 06:28:27 PM 40.2500 -75.3167 105° East 235 270 5,000 50 Level Philadelphia TRACON
Mon 06:29:27 PM 40.2000 -75.2667 143° Southeast 232 267 5,100 -100 Climbing Philadelphia TRACON
Mon 06:30:27 PM 40.1333 -75.2500 169° South 235 270 4,800 -524 Descending Philadelphia TRACON
Mon 06:31:33 PM 40.0833 -75.2167 153° Southeast 216 249 4,000 -381 Descending Philadelphia TRACON
Mon 06:32:33 PM 40.0167 -75.2000 169° South 205 236 4,000  Level Philadelphia TRACON
Mon 06:33:33 PM 39.9667 -75.1667 153° Southeast 207 238 4,000  Level Philadelphia TRACON
Mon 06:34:39 PM 39.9000 -75.1500 169° South 208 239 4,000 -100 Level Philadelphia TRACON
Mon 06:35:33 PM 39.8500 -75.1167 153° Southeast 208 239 3,800 -526 Descending Philadelphia TRACON
Mon 06:36:33 PM 39.8000 -75.1000 166° South 212 244 3,000 -400 Descending Philadelphia TRACON
Mon 06:37:33 PM 39.7500 -75.1000 180° South 202 232 3,000 -248 Level Philadelphia TRACON
Mon 06:38:34 PM 39.7333 -75.1500 247° West 176 203 2,500 -645 Descending Philadelphia TRACON
Mon 06:39:34 PM 39.7833 -75.1833 333° Northwest 175 201 1,700 -750 Descending Philadelphia TRACON
Mon 06:40:34 PM 39.8333 -75.2000 346° North 160 184 1,000 -700 Descending Philadelphia TRACON
Mon 06:41:34 PM 39.8667 -75.2167 339° North 105 121 300 -700 Descending Philadelphia TRACON

Login

Don't have an account? Register now (free) for customized features, flight alerts, and more!